Colorado Springs, CO (80919)

4:27 PM MDT on September 02, 2014 (GMT -0600)
At the Orton-Urbina's | Change Station
CLOSE
Current Station
Personal Weather Station
Location: Colorado Springs, CO
Elevation: 6700 ft
Nearby Weather Stations

Elev 6700 ft 38.93 °N, 104.85 °W | Updated 2 minutes ago

Clear
Clear
80.2 °F
Feels Like 80 °F
N
3.8
Wind Variable Wind from SE
Gusts 8.0 mph

Today
High -- | Low -- °F
--% Chance of Precip.
Yesterday
High -- | Low -- °F
Precip. -- in
6:29 AM 7:28 PM
First Quarter, 55% visible
Pressure 30.10 in
Visibility 10.0 miles
Clouds Clear
Heat Index 80 °F
Dew Point 53 °F
Humidity 39%
Rainfall -999.00 in
Snow Depth Not available.
UV 5 out of 12
Pollen 9.80 out of 12
Ozone Good
PM2.5 Good
Flu Activity Not available.
SPECI KAFF 022215Z 15012G15KT 10SM CLR 26/11 A3010 RMK AO2A WSHFT 13

More Conditions Fewer Conditions

Pressure 30.10 in
Visibility 10.0 miles
Clouds Clear
Heat Index 80 °F
Dew Point 53 °F
Humidity 39%
Rainfall -999.00 in
Snow Depth Not available.
UV 5 out of 12
Pollen 9.80 out of 12
Ozone Good
PM2.5 Good
Flu Activity Not available.
SPECI KAFF 022215Z 15012G15KT 10SM CLR 26/11 A3010 RMK AO2A WSHFT 13

More Conditions Fewer Conditions

10-Day Weather Forecast

Almanac

Astronomy

Sep. 02, 2014 Rise Set
Actual Time 6:29 AM MDT 7:28 PM MDT
Civil Twilight 6:01 AM MDT 7:55 PM MDT
Nautical Twilight 5:29 AM MDT 8:27 PM MDT
Astronomical Twilight 4:55 AM MDT 9:01 PM MDT
Moon 2:12 PM MDT No Moon Set
Length of Visible Light 13h 53m
Length of Day
12h 58m
Tomorrow will be 2m 25s shorter.
First Quarter, 55% of the Moon is Illuminated
Today
First Quarter
Sep 8
Full
Sep 15
Last Quarter
Sep 24
New
Oct 1
First Quarter

Today's Extremes

State Highs State Lows

Community

WunderPhotos

Upload Photos

1,749,788 photos uploaded!

Nearby

Air Quality

  Air Quality AQ Index Pollutant
Yesterday Good
OZONE
Yesterday Good
PM2.5
Current Good
OZONE
Current Good
PM2.5
Tuesday Good
PM2.5
Tuesday Good
OZONE
Wednesday Good
PM2.5
Wednesday Good
OZONE

Snow Depth

Station Depth Elevation
Niwot 0 in 9910 ft
Vail Mountain 88 in 10300 ft
Independence Pass 186 in 10600 ft
Mccoy Park 14 in 9480 ft
Willow Park 5 in 10700 ft

Earthquake Activity

City Distance Mag. Time & Date
Trinidad, Colorado 128 miles 2.7 4:20 AM MDT
2014-08-31
Minimum magnitude displayed is 2.5.

Coastal Water Temperatures

Place Temperature
No Stations Reporting

Nearby Weather Stations